West Los Angeles, California
Current Conditions -  °F | °C
As of 3:51 PM on Thursday 27 Nov 2014 (Local Time) from KSMO Reporting Station
Clear Clear  
Wind Chill: 75°   Ceiling: Unl
Heat Index: 75°   Visibility: 10mi
Dew Point: 43°   Wind: 8mph
Humidity: 32%   Direction: 230°SW
Pressure: 30"   Gusts: NA
Location:  34.047°N, 118.448°W
Report Text: KSMO 272351Z 23007KT 10SM CLR 24/06 A3000 RMK AO2 SLP158 T02390061 10300 20239 56009
Loading
Personal Weather Stations






























Interactive Weather Map New forecast layout! Learn more

10-Day Weather Forecast

Advertisements
Track Severe Weather on mobile